M I D A S
Marine Information and Data Acquisition System
Tripno 1658 of the Zeeleeuw from 2009-03-13 12:05:30 to 2009-03-13 14:10:09
Back to CruiseResearch ActivitiesStationsMapUnderway DataData graphs

EquipmentUnitsComment
TimeDGPSUTC
LatitudeDGPSDM.mWGS84
LongitudeDGPSDM.mWGS84
HeadingGyrodeg 
SOGDGPSknotsSpeed over ground
COGDGPSdegCourse over ground
DepthEcho soundermeters200 kHz
Missing or incorrect values are displayed as -999
Navigation data collected by the RV Zeeleeuw from 2009-03-13 08:06:48 to 2009-03-13 14:20:20
Time Latitude Longitude Heading SOG COG Depth
2009-03-13 08:07:52 51°13.662 2°55.96 125.4 -999 317 -999
2009-03-13 08:08:52 51°13.662 2°55.96 124 -999 181 -999
2009-03-13 08:09:52 51°13.662 2°55.96 121.1 -999 341 -999
2009-03-13 08:10:52 51°13.661 2°55.96 116.5 0.1 147 -999
2009-03-13 08:11:52 51°13.671 2°55.932 116.4 2.6 299 -999
2009-03-13 08:12:52 51°13.694 2°55.863 109.4 3.1 293 -999
2009-03-13 08:13:53 51°13.703 2°55.79 88 2.6 273 -999
2009-03-13 08:14:53 51°13.708 2°55.768 43.4 0.3 340 -999
2009-03-13 08:15:53 51°13.706 2°55.757 7.7 0.5 338 -999
2009-03-13 08:16:53 51°13.74 2°55.726 328.5 4.9 327 -999
2009-03-13 08:17:52 51°13.836 2°55.632 334.1 7.9 332 -999
2009-03-13 08:18:53 51°13.966 2°55.535 337.9 8.9 336 -999
2009-03-13 08:19:52 51°14.103 2°55.438 335.4 9.2 334 8.8
2009-03-13 08:20:50 51°14.225 2°55.309 323.2 9.1 319 8.9
2009-03-13 08:21:48 51°14.324 2°55.136 310.7 9.2 310 9
2009-03-13 08:22:49 51°14.421 2°54.931 308.8 10.1 306 8.9
2009-03-13 08:23:48 51°14.53 2°54.694 313.7 12.1 308 8.7
2009-03-13 08:24:49 51°14.654 2°54.429 308.7 12.3 303 8.6
2009-03-13 08:25:49 51°14.75 2°54.141 297.7 12.3 291 8.5
2009-03-13 08:26:49 51°14.818 2°53.834 292.5 12.2 288 8.1
2009-03-13 08:27:49 51°14.848 2°53.515 268.5 12.4 263 8.5
2009-03-13 08:28:48 51°14.811 2°53.192 261.8 12.6 259 8.3
2009-03-13 08:29:49 51°14.781 2°52.856 266.6 12.6 264 7.9
2009-03-13 08:30:48 51°14.762 2°52.528 269.4 12.6 266 8
2009-03-13 08:31:49 51°14.747 2°52.188 270.6 12.7 267 8.2
2009-03-13 08:32:48 51°14.739 2°51.855 270.9 12.8 266 8.5
2009-03-13 08:33:49 51°14.732 2°51.51 276.2 12.7 274 8.8
2009-03-13 08:34:49 51°14.759 2°51.175 283.9 12.8 279 9.4
2009-03-13 08:35:48 51°14.784 2°50.894 284.4 7.9 276 10.1
2009-03-13 08:36:48 51°14.763 2°50.748 247.1 3.7 242 10.3
2009-03-13 08:37:48 51°14.738 2°50.693 217.8 1.7 230 10.2
2009-03-13 08:38:49 51°14.72 2°50.663 206.2 1.5 226 10.2
2009-03-13 08:39:48 51°14.704 2°50.637 199.4 1.3 221 10.2
2009-03-13 08:40:49 51°14.688 2°50.613 192.4 1.3 223 10.2
2009-03-13 08:41:49 51°14.672 2°50.589 184.8 1.2 222 10.2
2009-03-13 08:42:49 51°14.657 2°50.567 179 1.3 222 10.2
2009-03-13 08:43:49 51°14.635 2°50.545 172.8 1.8 204 10.1
2009-03-13 08:44:48 51°14.607 2°50.536 137.3 1.7 180 10
2009-03-13 08:45:48 51°14.584 2°50.545 99.6 1.3 152 9.9
2009-03-13 08:46:48 51°14.58 2°50.57 57.5 1.6 62 9.8
2009-03-13 08:47:49 51°14.608 2°50.613 47.5 3 47 9.9
2009-03-13 08:48:48 51°14.657 2°50.665 34.7 4 28 10
2009-03-13 08:49:49 51°14.72 2°50.712 28 3.9 19 10.2
2009-03-13 08:50:49 51°14.807 2°50.756 24.1 6 18 10.5
2009-03-13 08:51:49 51°14.892 2°50.798 24.4 4.9 16 10.6
2009-03-13 08:52:49 51°14.963 2°50.829 23.4 3.6 14 10.8
2009-03-13 08:53:48 51°15.012 2°50.846 24.5 2.7 12 11
2009-03-13 08:54:49 51°15.052 2°50.857 25.4 1.8 7 11
2009-03-13 08:55:49 51°15.067 2°50.854 33.4 0.4 282 11
2009-03-13 08:56:49 51°15.058 2°50.834 55 1.1 228 11.1
2009-03-13 08:57:49 51°15.045 2°50.812 70.9 1.2 229 11.1
2009-03-13 08:58:49 51°15.032 2°50.793 81.9 0.6 185 11.2
2009-03-13 08:59:48 51°15.07 2°50.884 42.7 6.8 37 11.1
2009-03-13 09:00:49 51°15.188 2°50.975 27.7 8.1 21 11.2
2009-03-13 09:01:49 51°15.337 2°51.074 28.2 10.6 23 11.3
2009-03-13 09:02:48 51°15.483 2°51.175 27.5 6.9 22 11.5
2009-03-13 09:03:49 51°15.535 2°51.176 8.7 1.6 336 11.6
2009-03-13 09:04:48 51°15.55 2°51.163 22.6 0.7 322 11.6
2009-03-13 09:05:49 51°15.552 2°51.154 40.9 0.3 238 11.7
2009-03-13 09:06:49 51°15.546 2°51.144 57 0.7 214 11.6
2009-03-13 09:07:49 51°15.534 2°51.133 71.9 0.9 213 11.7
2009-03-13 09:08:48 51°15.533 2°51.139 39 0.8 19 11.7
2009-03-13 09:09:49 51°15.57 2°51.124 358.3 5.4 348 11.7
2009-03-13 09:10:49 51°15.7 2°51.114 6.3 8.8 2 11.7
2009-03-13 09:11:49 51°15.79 2°51.251 74.9 8.2 85 11.7
2009-03-13 09:12:49 51°15.697 2°51.412 156.1 9.7 168 11.6
2009-03-13 09:13:49 51°15.525 2°51.398 178.7 10.8 184 11.5
2009-03-13 09:14:49 51°15.342 2°51.368 179.4 11.1 186 11.4
2009-03-13 09:15:48 51°15.162 2°51.336 180.1 11.2 187 11
2009-03-13 09:16:49 51°14.977 2°51.328 166.5 10.6 171 10.5
2009-03-13 09:17:49 51°14.806 2°51.391 158.7 10.5 165 9.9
2009-03-13 09:18:49 51°14.639 2°51.472 153.9 10.4 161 9.2
2009-03-13 09:19:49 51°14.496 2°51.549 154.1 6.7 163 8.7
2009-03-13 09:20:49 51°14.427 2°51.572 151.1 2.7 176 8.4
2009-03-13 09:21:50 51°14.412 2°51.555 168.5 0.9 267 -999
2009-03-13 09:22:51 51°14.409 2°51.533 167.7 0.8 256 8.4
2009-03-13 09:23:49 51°14.405 2°51.512 164.3 0.9 251 8.4
2009-03-13 09:24:49 51°14.399 2°51.489 159.1 0.9 246 8.4
2009-03-13 09:25:49 51°14.392 2°51.466 153.2 1 244 8.4
2009-03-13 09:26:49 51°14.385 2°51.442 147.5 1 243 8.4
2009-03-13 09:27:49 51°14.377 2°51.418 141.4 1 243 8.3
2009-03-13 09:28:49 51°14.368 2°51.392 135.1 1.1 242 8.3
2009-03-13 09:29:49 51°14.359 2°51.366 130 1.1 241 8.3
2009-03-13 09:30:49 51°14.349 2°51.34 124.9 1.2 239 8.3
2009-03-13 09:31:49 51°14.339 2°51.312 120.6 1.3 238 8.3
2009-03-13 09:32:49 51°14.328 2°51.284 116.1 1.2 238 8.3
2009-03-13 09:33:49 51°14.316 2°51.256 114.5 1.3 236 8.3
2009-03-13 09:34:49 51°14.305 2°51.228 114.8 1.3 236 8.2
2009-03-13 09:35:49 51°14.293 2°51.201 114.9 1.2 236 8.2
2009-03-13 09:36:49 51°14.281 2°51.173 117.2 1.2 236 8.2
2009-03-13 09:37:49 51°14.269 2°51.146 121.9 1.2 236 8.2
2009-03-13 09:38:49 51°14.258 2°51.119 126.3 1.2 235 8.2
2009-03-13 09:39:49 51°14.247 2°51.092 130.5 1.2 237 8.1
2009-03-13 09:40:49 51°14.236 2°51.066 133 1.2 237 8.1
2009-03-13 09:41:49 51°14.223 2°51.048 123.8 1.4 163 8.1
2009-03-13 09:42:49 51°14.224 2°51.097 46.7 2.8 40 8.1
2009-03-13 09:43:49 51°14.293 2°51.135 16.2 5.7 10 8.3
2009-03-13 09:44:49 51°14.413 2°51.208 22.6 8.9 16 8.7
2009-03-13 09:45:49 51°14.55 2°51.299 34.8 9 28 9.2
2009-03-13 09:46:49 51°14.629 2°51.383 63.3 3.5 71 9.6
2009-03-13 09:47:49 51°14.613 2°51.45 118.6 2.9 143 9.5
2009-03-13 09:48:49 51°14.556 2°51.477 158.2 4.1 174 9.3
2009-03-13 09:49:49 51°14.48 2°51.468 182.2 4.8 193 8.9
2009-03-13 09:50:49 51°14.41 2°51.421 204.8 4.3 212 8.7
2009-03-13 09:51:49 51°14.356 2°51.359 213.6 3.8 220 8.6
2009-03-13 09:52:49 51°14.311 2°51.298 221.9 3.5 225 8.4
2009-03-13 09:53:48 51°14.274 2°51.232 234.7 3.4 233 8.3
2009-03-13 09:54:49 51°14.244 2°51.157 248.2 3.3 241 4.9
2009-03-13 09:55:49 51°14.221 2°51.079 255.9 3.2 245 5
2009-03-13 09:56:49 51°14.199 2°50.999 253.6 3.4 245 4.8
2009-03-13 09:57:49 51°14.174 2°50.914 252.6 3.6 244 4.6
2009-03-13 09:58:49 51°14.149 2°50.827 254.8 3.6 246 12.7
2009-03-13 09:59:48 51°14.127 2°50.739 259.4 3.6 250 4.8
2009-03-13 10:00:48 51°14.108 2°50.649 263.6 3.6 253 4.6
2009-03-13 10:01:49 51°14.093 2°50.556 268.2 3.6 256 4.7
2009-03-13 10:02:49 51°14.081 2°50.466 271.9 3.5 259 4.9
2009-03-13 10:03:49 51°14.069 2°50.374 269.7 3.5 258 5
2009-03-13 10:04:48 51°14.056 2°50.284 269 3.5 257 6.6
2009-03-13 10:05:49 51°14.043 2°50.19 269.2 3.6 257 5.2
2009-03-13 10:06:49 51°14.028 2°50.099 265.1 3.6 255 5.1
2009-03-13 10:07:49 51°14.009 2°50.009 257.7 3.6 250 4.9
2009-03-13 10:08:49 51°13.984 2°49.922 250.5 3.6 244 5
2009-03-13 10:09:49 51°13.955 2°49.836 244 3.7 239 4.9
2009-03-13 10:10:49 51°13.924 2°49.752 247.6 3.7 241 4.8
2009-03-13 10:11:49 51°13.898 2°49.664 255.8 3.6 247 4.9
2009-03-13 10:12:49 51°13.878 2°49.574 263.1 3.6 253 4.7
2009-03-13 10:13:49 51°13.862 2°49.484 265.8 3.5 255 4.8
2009-03-13 10:14:49 51°13.844 2°49.394 261 3.6 252 5.1
2009-03-13 10:15:49 51°13.825 2°49.304 260.1 3.6 250 8.8
2009-03-13 10:16:49 51°13.805 2°49.213 259.3 3.6 251 8.6
2009-03-13 10:17:48 51°13.785 2°49.125 258.9 3.6 250 8.8
2009-03-13 10:18:48 51°13.761 2°49.04 245.3 3.6 241 8.7
2009-03-13 10:19:48 51°13.728 2°48.961 237.6 3.6 234 8.4
2009-03-13 10:20:49 51°13.695 2°48.881 244.4 3.5 241 7.2
2009-03-13 10:21:49 51°13.677 2°48.8 271.1 3.1 262 5.2
2009-03-13 10:22:49 51°13.678 2°48.721 299.7 3 281 5.1
2009-03-13 10:23:49 51°13.693 2°48.656 326.7 2.2 300 4.8
2009-03-13 10:24:49 51°13.711 2°48.621 355.2 1.3 318 9
2009-03-13 10:25:49 51°13.725 2°48.608 24.4 0.8 355 4.7
2009-03-13 10:26:49 51°13.734 2°48.618 59 0.7 70 5
2009-03-13 10:27:49 51°13.739 2°48.644 58.5 1.1 67 9.9
2009-03-13 10:28:49 51°13.75 2°48.672 51.5 1.4 53 9.9
2009-03-13 10:29:49 51°13.764 2°48.702 51.3 1.5 52 4.7
2009-03-13 10:30:49 51°13.778 2°48.737 54.6 1.7 59 5
2009-03-13 10:31:49 51°13.792 2°48.775 55 1.7 60 9.3
2009-03-13 10:32:49 51°13.807 2°48.813 54.4 1.7 58 9.9
2009-03-13 10:33:49 51°13.822 2°48.852 55 1.7 60 4.8
2009-03-13 10:34:49 51°13.837 2°48.892 55.5 1.8 60 -999
2009-03-13 10:35:49 51°13.852 2°48.933 55.3 1.8 57 9
2009-03-13 10:36:49 51°13.871 2°48.978 55.4 2.9 58 5.2
2009-03-13 10:37:49 51°13.916 2°49.082 55.2 6 56 4.9
2009-03-13 10:38:49 51°13.98 2°49.248 59.4 8.7 60 8.9
2009-03-13 10:39:49 51°14.061 2°49.481 61.1 10.8 61 33.7
2009-03-13 10:40:49 51°14.148 2°49.734 63 10.9 64 4.8
2009-03-13 10:41:49 51°14.228 2°49.993 64 10.8 64 4.9
2009-03-13 10:42:49 51°14.311 2°50.249 61.2 10.9 61 15.6
2009-03-13 10:43:49 51°14.393 2°50.504 65.1 10.8 65 4.9
2009-03-13 10:44:49 51°14.462 2°50.771 66.9 10.9 68 4.8
2009-03-13 10:45:49 51°14.526 2°51.042 68.3 10.9 69 16
2009-03-13 10:46:49 51°14.589 2°51.315 68.6 10.9 70 4.7
2009-03-13 10:47:49 51°14.644 2°51.593 73.6 11.1 73 16
2009-03-13 10:48:49 51°14.677 2°51.884 80.7 11.2 82 15.7
2009-03-13 10:49:49 51°14.699 2°52.181 83.8 11.3 86 15.5
2009-03-13 10:50:49 51°14.692 2°52.483 92 11.4 95 20.8
2009-03-13 10:51:49 51°14.675 2°52.785 93 11.5 96 17.7
2009-03-13 10:52:48 51°14.661 2°53.079 91.5 11.3 101 16
2009-03-13 10:53:49 51°14.659 2°53.379 86.9 11.1 87 5
2009-03-13 10:54:49 51°14.668 2°53.679 85.8 11.6 88 19
2009-03-13 10:55:49 51°14.654 2°53.987 96 11.6 98 20.2
2009-03-13 10:56:49 51°14.6 2°54.284 107.4 11.7 109 16.2
2009-03-13 10:57:49 51°14.523 2°54.571 111.4 11.8 114 20.8
2009-03-13 10:58:49 51°14.433 2°54.848 116.6 11.7 120 16.9
2009-03-13 10:59:49 51°14.331 2°55.117 124.6 12 123 22.8
2009-03-13 11:00:49 51°14.218 2°55.317 139.7 8.9 140 22.5
2009-03-13 11:01:49 51°14.103 2°55.44 152.5 7.8 152 21
2009-03-13 11:02:48 51°13.996 2°55.514 157.6 6.9 157 22.2
2009-03-13 11:03:49 51°13.898 2°55.581 156.4 5.7 155 15.1
2009-03-13 11:04:49 51°13.823 2°55.635 153.4 4.3 150 23.3
2009-03-13 11:05:49 51°13.763 2°55.705 134.2 4.7 134 23.5
2009-03-13 11:06:49 51°13.71 2°55.806 127.4 5.1 128 22.3
2009-03-13 11:07:49 51°13.672 2°55.905 112.7 3.6 109 20.2
2009-03-13 11:08:49 51°13.665 2°55.951 119.8 0.7 110 21
2009-03-13 11:09:49 51°13.662 2°55.958 123.3 -999 260 21.7
2009-03-13 11:10:48 51°13.663 2°55.959 129.2 -999 201 22.4
2009-03-13 11:11:48 51°13.663 2°55.959 126.5 -999 258 22.8
2009-03-13 11:12:48 51°13.663 2°55.959 126.1 -999 143 22.7
2009-03-13 11:13:48 51°13.662 2°55.958 124.2 -999 337 22.1
2009-03-13 11:14:49 51°13.664 2°55.959 124 -999 11 22.9
2009-03-13 11:15:49 51°13.665 2°55.959 126.5 -999 133 22.3
2009-03-13 11:16:49 51°13.665 2°55.958 126.6 -999 108 23.5
2009-03-13 11:17:49 51°13.664 2°55.959 126.5 -999 109 10.3
2009-03-13 11:18:48 51°13.664 2°55.959 126.4 -999 328 22.5
2009-03-13 11:19:49 51°13.665 2°55.96 126.4 -999 -999 23.5
2009-03-13 11:20:49 51°13.662 2°55.959 126.4 -999 229 21
2009-03-13 11:21:49 51°13.66 2°55.958 126.4 -999 197 23
2009-03-13 11:22:48 51°13.663 2°55.959 126.3 -999 98 23
2009-03-13 11:23:48 51°13.664 2°55.96 126.3 -999 337 22.1
2009-03-13 11:24:48 51°13.665 2°55.96 126.3 -999 184 23.6
2009-03-13 11:25:48 51°13.663 2°55.959 126.3 -999 205 20.8
2009-03-13 11:26:49 51°13.664 2°55.959 126.3 -999 291 21.6
2009-03-13 11:27:49 51°13.664 2°55.959 126.3 -999 270 21.7
2009-03-13 11:28:49 51°13.664 2°55.959 126.3 -999 267 4.5
2009-03-13 11:29:49 51°13.661 2°55.958 126.3 -999 325 4.7
2009-03-13 11:30:48 51°13.664 2°55.96 126.2 -999 324 4.5
2009-03-13 11:31:49 51°13.666 2°55.961 126.2 -999 76 4.6
2009-03-13 11:32:49 51°13.665 2°55.96 126.1 -999 48 4.5
2009-03-13 11:33:48 51°13.664 2°55.959 126.1 -999 183 4.6
2009-03-13 11:34:49 51°13.666 2°55.96 126.1 -999 282 4.7
2009-03-13 11:35:48 51°13.663 2°55.959 126.1 -999 119 4.5
2009-03-13 11:36:49 51°13.664 2°55.959 126.1 -999 283 4.7
2009-03-13 11:37:49 51°13.663 2°55.96 126.1 -999 193 4.5
2009-03-13 11:38:49 51°13.663 2°55.96 126.1 -999 264 4.7
2009-03-13 11:39:49 51°13.662 2°55.96 126.3 -999 73 4.7
2009-03-13 11:40:49 51°13.664 2°55.96 126.3 -999 186 4.7
2009-03-13 11:41:48 51°13.665 2°55.96 126.3 -999 305 4.5
2009-03-13 11:42:49 51°13.663 2°55.959 126.3 -999 293 4.8
2009-03-13 11:43:49 51°13.662 2°55.958 126.3 -999 243 4.5
2009-03-13 11:44:49 51°13.663 2°55.959 126.3 -999 153 4.7
2009-03-13 11:45:48 51°13.664 2°55.959 126.3 -999 230 5
2009-03-13 11:46:49 51°13.661 2°55.958 126.3 -999 234 23.4
2009-03-13 11:47:49 51°13.664 2°55.958 126.3 -999 43 21.9
2009-03-13 11:48:49 51°13.666 2°55.958 126.3 -999 133 21.3
2009-03-13 11:49:49 51°13.665 2°55.959 126.3 -999 319 22.4
2009-03-13 11:50:49 51°13.664 2°55.958 126.3 -999 211 22
2009-03-13 11:51:48 51°13.664 2°55.958 126.4 -999 305 22.6
2009-03-13 11:52:49 51°13.664 2°55.959 126.4 -999 354 21.9
2009-03-13 11:53:49 51°13.664 2°55.959 126.4 -999 198 23.3
2009-03-13 11:54:49 51°13.664 2°55.959 126.4 -999 322 23.5
2009-03-13 11:55:49 51°13.664 2°55.959 126.4 -999 182 22.6
2009-03-13 11:56:49 51°13.663 2°55.959 125.9 0.1 139 4.9
2009-03-13 11:57:49 51°13.663 2°55.96 124.5 0.1 177 23.1
2009-03-13 11:58:48 51°13.662 2°55.959 117.4 0.1 197 22
2009-03-13 11:59:49 51°13.671 2°55.933 113.9 2.2 295 23
2009-03-13 12:00:49 51°13.688 2°55.863 105.9 3 288 22.1
2009-03-13 12:01:49 51°13.698 2°55.794 92.4 2.2 278 23.1
2009-03-13 12:02:49 51°13.701 2°55.758 74 0.6 287 23.6
2009-03-13 12:03:49 51°13.712 2°55.765 37.3 0.9 25 20
2009-03-13 12:04:49 51°13.711 2°55.758 12.8 0.6 358 19.4
2009-03-13 12:05:49 51°13.757 2°55.711 323.8 5.7 323 22.7
2009-03-13 12:06:49 51°13.854 2°55.599 329.6 7.9 330 22.9
2009-03-13 12:07:49 51°13.986 2°55.514 341.9 8.8 339 23.6
2009-03-13 12:08:49 51°14.12 2°55.426 335.4 8.6 333 22.6
2009-03-13 12:09:49 51°14.236 2°55.292 319 8.6 316 23.1
2009-03-13 12:10:49 51°14.332 2°55.107 308.1 9.4 306 23.5
2009-03-13 12:11:49 51°14.429 2°54.889 288.4 10.6 287 20.9
2009-03-13 12:12:49 51°14.432 2°54.605 266 11 268 20.9
2009-03-13 12:13:49 51°14.377 2°54.338 236.2 10.6 234 20.4
2009-03-13 12:14:49 51°14.285 2°54.093 241.4 10.8 243 18.2
2009-03-13 12:15:49 51°14.205 2°53.837 243.3 10.8 244 17.8
2009-03-13 12:16:49 51°14.129 2°53.579 243.5 10.8 244 21.4
2009-03-13 12:17:49 51°14.052 2°53.321 244 10.7 244 19.5
2009-03-13 12:18:49 51°13.977 2°53.062 244.5 10.7 246 22.2
2009-03-13 12:19:49 51°13.9 2°52.806 242.3 10.7 243 20.1
2009-03-13 12:20:49 51°13.818 2°52.556 241.4 10.6 241 21.4
2009-03-13 12:21:49 51°13.736 2°52.307 241.8 10.6 243 21.8
2009-03-13 12:22:49 51°13.655 2°52.057 242.3 10.6 243 20.8
2009-03-13 12:23:49 51°13.572 2°51.813 240.4 10.4 240 22.5
2009-03-13 12:24:49 51°13.489 2°51.57 243.1 10.4 244 22.5
2009-03-13 12:25:49 51°13.412 2°51.323 243.2 10.4 244 23.1
2009-03-13 12:26:49 51°13.331 2°51.08 240.2 10.4 241 23.1
2009-03-13 12:27:49 51°13.244 2°50.843 240.4 10.3 241 23.3
2009-03-13 12:28:49 51°13.156 2°50.609 239.4 10.3 239 12
2009-03-13 12:29:48 51°13.082 2°50.381 241.5 10.1 241 14
2009-03-13 12:30:49 51°13 2°50.141 238.6 10.1 236 14.1
2009-03-13 12:31:49 51°12.901 2°49.927 234 9.5 231 14.1
2009-03-13 12:32:48 51°12.846 2°49.81 241.4 3.1 243 14
2009-03-13 12:33:48 51°12.842 2°49.767 265.7 1 325 14.5
2009-03-13 12:34:49 51°12.862 2°49.764 284.7 1.4 9 14.5
2009-03-13 12:35:49 51°12.885 2°49.777 292.6 1.6 29 14.6
2009-03-13 12:36:49 51°12.91 2°49.795 290.5 1.5 4 19.5
2009-03-13 12:37:49 51°12.923 2°49.792 242.6 0.4 38 18.4
2009-03-13 12:38:49 51°12.929 2°49.807 236 0.9 62 18.4
2009-03-13 12:39:49 51°12.938 2°49.832 234.2 1.2 64 18.1
2009-03-13 12:40:49 51°12.948 2°49.863 236.1 1.4 61 18.3
2009-03-13 12:41:49 51°12.95 2°49.88 226.5 1.6 207 18.8
2009-03-13 12:42:49 51°12.865 2°49.81 210.6 8.2 203 18.5
2009-03-13 12:43:49 51°12.716 2°49.709 209.3 10.2 204 17.6
2009-03-13 12:44:49 51°12.582 2°49.628 204 5.3 189 9.8
2009-03-13 12:45:48 51°12.534 2°49.632 206.9 1 136 22.9
2009-03-13 12:46:49 51°12.536 2°49.656 239.4 1.1 58 20.4
2009-03-13 12:47:49 51°12.55 2°49.682 255.6 1.5 46 8
2009-03-13 12:48:49 51°12.569 2°49.713 270.7 1.8 45 8.5
2009-03-13 12:49:49 51°12.59 2°49.748 283.6 1.9 46 4.9
2009-03-13 12:50:49 51°12.612 2°49.786 292.6 2 48 9
2009-03-13 12:51:49 51°12.634 2°49.827 301.5 2.1 49 5.1
2009-03-13 12:52:49 51°12.657 2°49.87 311 2.1 51 13.7
2009-03-13 12:53:49 51°12.68 2°49.916 321.5 2.2 51 13.7
2009-03-13 12:54:49 51°12.704 2°49.963 331.6 2.3 51 5.2
2009-03-13 12:55:49 51°12.729 2°50.012 341 2.4 50 13.8
2009-03-13 12:56:49 51°12.755 2°50.063 352.9 2.5 52 4.9
2009-03-13 12:57:49 51°12.779 2°50.115 6.8 2.5 53 13.9
2009-03-13 12:58:49 51°12.804 2°50.169 20.7 2.5 55 12.2
2009-03-13 12:59:49 51°12.828 2°50.223 33.4 2.5 56 12
2009-03-13 13:00:49 51°12.851 2°50.277 45.7 2.5 57 13.9
2009-03-13 13:01:49 51°12.875 2°50.334 58 3.3 58 13.6
2009-03-13 13:02:49 51°12.88 2°50.496 131.4 7.1 121 13.6
2009-03-13 13:03:49 51°12.794 2°50.495 221.8 7.7 223 13.1
2009-03-13 13:04:49 51°12.708 2°50.294 240.9 9.8 241 12.9
2009-03-13 13:05:49 51°12.622 2°50.073 238.1 9.8 239 20.9
2009-03-13 13:06:49 51°12.535 2°49.852 236.7 9.8 237 4.7
2009-03-13 13:07:49 51°12.44 2°49.641 233.1 9.8 231 5
2009-03-13 13:08:49 51°12.339 2°49.433 234.8 10 235 21.5
2009-03-13 13:09:49 51°12.262 2°49.265 234 4.9 233 4.9
2009-03-13 13:10:49 51°12.227 2°49.203 229.4 2.2 225 4.9
2009-03-13 13:11:49 51°12.213 2°49.152 254.1 2.3 268 4.7
2009-03-13 13:12:49 51°12.231 2°49.085 285.8 3.4 313 10.3
2009-03-13 13:13:49 51°12.29 2°49.041 320 4.3 347 11.5
2009-03-13 13:14:49 51°12.363 2°49.052 352.7 4.2 18 13.7
2009-03-13 13:15:49 51°12.423 2°49.104 18.7 4.1 37 14
2009-03-13 13:16:49 51°12.471 2°49.182 47.8 4 53 14.1
2009-03-13 13:17:49 51°12.508 2°49.271 56.3 4.1 57 13.7
2009-03-13 13:18:49 51°12.545 2°49.362 55.1 4.1 57 13.2
2009-03-13 13:19:49 51°12.583 2°49.453 55.2 4.1 58 14
2009-03-13 13:20:49 51°12.62 2°49.544 54.4 4.1 57 14.2
2009-03-13 13:21:49 51°12.658 2°49.635 54.1 4.1 57 14.3
2009-03-13 13:22:49 51°12.696 2°49.724 53.9 4.1 56 14.2
2009-03-13 13:23:49 51°12.734 2°49.814 53.8 4.1 56 12.9
2009-03-13 13:24:49 51°12.772 2°49.904 54 4.1 56 14.3
2009-03-13 13:25:49 51°12.811 2°49.994 54.8 4.1 56 4.8
2009-03-13 13:26:49 51°12.849 2°50.085 54.8 4.1 56 14.4
2009-03-13 13:27:49 51°12.888 2°50.177 55.2 4.2 57 14.4
2009-03-13 13:28:49 51°12.927 2°50.268 54.9 4.2 56 14.5
2009-03-13 13:29:49 51°12.965 2°50.36 53.8 4.2 56 14.4
2009-03-13 13:30:49 51°13.004 2°50.452 54 4.2 57 14.5
2009-03-13 13:31:49 51°13.044 2°50.544 54.3 4.1 55 18.2
2009-03-13 13:32:49 51°13.083 2°50.637 53.8 4.2 56 18.3
2009-03-13 13:33:49 51°13.122 2°50.729 54.1 4.2 56 18
2009-03-13 13:34:49 51°13.162 2°50.821 54.2 4.2 55 4.8
2009-03-13 13:35:49 51°13.203 2°50.91 43.6 4.1 51 4.8
2009-03-13 13:36:49 51°13.249 2°50.989 29.6 4.1 45 18.1
2009-03-13 13:37:49 51°13.299 2°51.06 19.9 4 40 18.8
2009-03-13 13:38:49 51°13.351 2°51.127 18.9 4 38 19
2009-03-13 13:39:49 51°13.404 2°51.197 25.8 4.2 41 18.4
2009-03-13 13:40:49 51°13.453 2°51.279 44.1 4.3 50 18.7
2009-03-13 13:41:49 51°13.495 2°51.371 59.7 4.3 58 18.1
2009-03-13 13:42:49 51°13.532 2°51.468 60.8 4.3 57 17.8
2009-03-13 13:43:49 51°13.57 2°51.566 61.5 4.3 59 18.6
2009-03-13 13:44:49 51°13.607 2°51.664 61.5 4.3 59 18.9
2009-03-13 13:45:49 51°13.643 2°51.762 62.6 4.2 59 19
2009-03-13 13:46:49 51°13.676 2°51.862 79.3 4.4 68 19.9
2009-03-13 13:47:49 51°13.691 2°51.976 114.6 4.4 88 18.2
2009-03-13 13:48:49 51°13.69 2°52.072 133.8 3.1 89 19.3
2009-03-13 13:49:49 51°13.695 2°52.15 129.8 2.9 81 5.1
2009-03-13 13:50:49 51°13.706 2°52.223 121.5 2.7 73 14
2009-03-13 13:51:49 51°13.721 2°52.289 111.9 2.6 68 13.9
2009-03-13 13:52:49 51°13.739 2°52.352 102.1 2.6 63 13.9
2009-03-13 13:53:49 51°13.757 2°52.411 100.4 2.5 62 13.8
2009-03-13 13:54:48 51°13.776 2°52.466 103.1 2.5 59 13.8
2009-03-13 13:55:48 51°13.797 2°52.52 105.2 2.3 59 23.1
2009-03-13 13:56:49 51°13.818 2°52.573 108.2 2.3 58 11.3
2009-03-13 13:57:49 51°13.839 2°52.623 112.9 2.2 57 4.7
2009-03-13 13:58:48 51°13.86 2°52.67 116.6 2.2 54 4.7
2009-03-13 13:59:48 51°13.88 2°52.731 96.5 3.3 69 13.6
2009-03-13 14:00:49 51°13.913 2°52.827 58 4.7 56 13.7
2009-03-13 14:01:49 51°13.962 2°52.941 59.4 5.6 56 10
2009-03-13 14:02:49 51°14.016 2°53.074 61.4 6.6 58 9.8
2009-03-13 14:03:49 51°14.081 2°53.236 60.6 8 58 9.6
2009-03-13 14:04:49 51°14.159 2°53.432 60 9.8 57 9.5
2009-03-13 14:05:49 51°14.256 2°53.674 58.9 11.6 56 9.3
2009-03-13 14:06:48 51°14.373 2°53.954 61.6 13.8 58 9.3
2009-03-13 14:07:49 51°14.48 2°54.29 74.8 14 73 8.4
2009-03-13 14:08:49 51°14.458 2°54.635 115.6 13 109 7.2
2009-03-13 14:09:49 51°14.379 2°54.957 119.4 13 112 1.1
2009-03-13 14:10:49 51°14.276 2°55.219 128.5 9.9 129 9.2
2009-03-13 14:11:49 51°14.185 2°55.355 144.2 6.2 145 10.2
2009-03-13 14:12:49 51°14.113 2°55.418 157.8 3.5 156 9.9
2009-03-13 14:13:49 51°14.065 2°55.452 158.6 3.1 156 1.1
2009-03-13 14:14:48 51°14.013 2°55.489 158.2 5.1 158 8.5
2009-03-13 14:15:49 51°13.913 2°55.558 155.5 6.9 156 8.1
2009-03-13 14:16:48 51°13.827 2°55.625 154.3 5.4 153 9.4
2009-03-13 14:17:49 51°13.747 2°55.72 134.3 5.9 133 9.4
2009-03-13 14:18:49 51°13.7 2°55.823 122.3 4.1 120 8.4
2009-03-13 14:19:49 51°13.675 2°55.907 113.6 2.9 112 4.1